Time;durP1;ratioP1;P1;durP2;ratioP2;P2;SDS_P1;SDS_P2;PMS_P1;PMS_P2;Temp;Humidity;BMP_temperature;BMP_pressure;BME280_temperature;BME280_humidity;BME280_pressure;Samples;Min_cycle;Max_cycle;Signal;HPM_P1;HPM_P2
2022/07/15 00:02:05;;;;;;;0.80;0.80;;;19.50;80.70;;;;;;5075190;28;20498;-81
2022/07/15 00:04:34;;;;;;;1.37;0.70;;;19.40;80.40;;;;;;5074815;28;20928;-81
2022/07/15 00:07:01;;;;;;;0.67;0.67;;;19.40;80.40;;;;;;5074730;28;20963;-81
2022/07/15 00:12:09;;;;;;;2.00;0.60;;;19.30;80.80;;;;;;5074369;28;20432;-82
2022/07/15 00:14:35;;;;;;;2.50;0.57;;;19.30;80.70;;;;;;5074817;28;20477;-82
2022/07/15 00:17:02;;;;;;;0.60;0.60;;;19.20;80.20;;;;;;5074765;28;20452;-82
2022/07/15 00:19:29;;;;;;;0.53;0.50;;;19.20;80.60;;;;;;5074740;28;20449;-82
2022/07/15 00:21:57;;;;;;;7.50;0.60;;;19.20;81.00;;;;;;5074836;28;20456;-82
2022/07/15 00:24:24;;;;;;;0.93;0.70;;;19.10;82.00;;;;;;5074693;28;20456;-82
2022/07/15 00:26:51;;;;;;;1.00;0.53;;;19.10;81.80;;;;;;5074600;28;20472;-82
2022/07/15 00:29:18;;;;;;;0.70;0.60;;;19.00;81.30;;;;;;5074468;28;20468;-82
2022/07/15 00:31:44;;;;;;;0.60;0.60;;;19.00;81.80;;;;;;5074442;28;20464;-82
2022/07/15 00:34:11;;;;;;;0.77;0.77;;;18.90;81.60;;;;;;5074475;28;20484;-82
2022/07/15 00:36:38;;;;;;;1.83;0.80;;;18.90;82.50;;;;;;5074246;28;20452;-81
2022/07/15 00:39:07;;;;;;;0.80;0.70;;;18.80;82.30;;;;;;5073958;28;20823;-82
2022/07/15 00:41:37;;;;;;;0.70;0.57;;;18.80;82.50;;;;;;5074355;28;20498;-82
2022/07/15 00:44:04;;;;;;;0.77;0.60;;;18.70;83.00;;;;;;5074296;28;20434;-82
2022/07/15 00:46:32;;;;;;;0.60;0.60;;;18.70;83.30;;;;;;5074257;28;20449;-82
2022/07/15 00:48:59;;;;;;;0.87;0.80;;;18.60;83.40;;;;;;5074122;28;20465;-82
2022/07/15 00:51:27;;;;;;;1.17;0.90;;;18.60;84.00;;;;;;5074109;28;20448;-82
2022/07/15 00:53:56;;;;;;;0.77;0.70;;;18.50;83.60;;;;;;5073720;28;20958;-82
2022/07/15 00:56:26;;;;;;;2.80;0.93;;;18.50;83.10;;;;;;5073708;28;20937;-82
2022/07/15 00:58:54;;;;;;;1.10;0.87;;;18.50;83.80;;;;;;5074018;28;20469;-82
2022/07/15 01:01:21;;;;;;;1.00;0.57;;;18.40;84.60;;;;;;5074000;28;20452;-82
2022/07/15 01:03:49;;;;;;;0.77;0.70;;;18.40;84.10;;;;;;5073921;28;20449;-82
2022/07/15 01:06:16;;;;;;;0.60;0.60;;;18.30;84.30;;;;;;5073900;28;20459;-82
2022/07/15 01:08:43;;;;;;;1.43;0.70;;;18.30;84.40;;;;;;5073751;28;20468;-82
2022/07/15 01:11:10;;;;;;;3.00;0.73;;;18.30;83.80;;;;;;5073471;28;20955;-82
2022/07/15 01:13:38;;;;;;;4.63;0.70;;;18.20;84.00;;;;;;5073760;28;20445;-82
2022/07/15 01:16:05;;;;;;;2.07;0.80;;;18.20;84.40;;;;;;5073685;28;20480;-82
2022/07/15 01:18:32;;;;;;;0.80;0.80;;;18.20;85.50;;;;;;5073322;28;20465;-82
2022/07/15 01:21:00;;;;;;;0.60;0.60;;;18.20;84.30;;;;;;5073648;28;20449;-82
2022/07/15 01:23:27;;;;;;;0.80;0.80;;;18.10;84.40;;;;;;5073534;28;20543;-81
2022/07/15 01:25:54;;;;;;;1.23;0.50;;;18.10;84.30;;;;;;5073551;28;20445;-82
2022/07/15 01:28:21;;;;;;;1.53;0.63;;;18.10;84.00;;;;;;5073444;28;20468;-82
2022/07/15 01:30:47;;;;;;;0.90;0.90;;;18.10;84.00;;;;;;5073546;28;20453;-82
2022/07/15 01:33:14;;;;;;;1.63;0.83;;;18.10;83.70;;;;;;5073520;28;20452;-82
2022/07/15 01:35:41;;;;;;;0.90;0.90;;;18.10;83.90;;;;;;5073126;28;21030;-82
2022/07/15 01:38:09;;;;;;;0.50;0.40;;;18.10;83.70;;;;;;5073014;28;20489;-82
2022/07/15 01:40:36;;;;;;;0.60;0.60;;;18.10;84.00;;;;;;5073120;28;20959;-82
2022/07/15 01:43:03;;;;;;;1.63;0.60;;;18.10;83.70;;;;;;5072792;28;20456;-82
2022/07/15 01:45:31;;;;;;;0.50;0.50;;;18.10;84.30;;;;;;5073105;28;20441;-81
2022/07/15 01:47:58;;;;;;;0.80;0.60;;;18.00;84.10;;;;;;5073271;28;20472;-82
2022/07/15 01:50:24;;;;;;;0.50;0.50;;;18.00;84.20;;;;;;5074020;28;20456;-82
2022/07/15 01:52:51;;;;;;;0.80;0.70;;;18.00;83.70;;;;;;5073216;28;20473;-82
2022/07/15 01:55:19;;;;;;;0.70;0.50;;;18.00;83.10;;;;;;5072880;28;20503;-82
2022/07/15 01:57:46;;;;;;;2.10;0.80;;;18.00;83.70;;;;;;5072818;28;20469;-82
2022/07/15 02:00:16;;;;;;;0.50;0.50;;;18.00;84.20;;;;;;5073150;28;20444;-82
2022/07/15 02:02:43;;;;;;;1.00;0.90;;;18.00;84.00;;;;;;5073157;28;20480;-82
2022/07/15 02:05:10;;;;;;;0.70;0.63;;;18.00;84.40;;;;;;5072972;28;20490;-82
2022/07/15 02:07:38;;;;;;;0.83;0.50;;;17.90;84.10;;;;;;5073153;28;20913;-82
2022/07/15 02:10:05;;;;;;;1.00;0.77;;;17.90;85.40;;;;;;5072878;28;20944;-82
2022/07/15 02:12:33;;;;;;;0.60;0.60;;;17.90;84.10;;;;;;5073167;28;20444;-82
2022/07/15 02:15:00;;;;;;;1.20;1.10;;;17.80;83.80;;;;;;5072951;28;20507;-82
2022/07/15 02:17:27;;;;;;;0.60;0.50;;;17.80;85.00;;;;;;5072913;28;20526;-82
2022/07/15 02:19:54;;;;;;;0.47;0.47;;;17.80;84.80;;;;;;5072950;28;20445;-82
2022/07/15 02:22:21;;;;;;;0.70;0.60;;;17.70;84.90;;;;;;5073060;28;20453;-82
2022/07/15 02:24:47;;;;;;;1.03;0.70;;;17.70;85.10;;;;;;5072656;28;20443;-81
2022/07/15 02:27:14;;;;;;;0.53;0.50;;;17.60;86.40;;;;;;5072945;28;20452;-82
2022/07/15 02:29:42;;;;;;;0.60;0.60;;;17.60;86.00;;;;;;5072704;28;20452;-82
2022/07/15 02:32:09;;;;;;;1.23;0.80;;;17.50;86.00;;;;;;5072551;28;20955;-82
2022/07/15 02:34:36;;;;;;;0.50;0.50;;;17.50;86.60;;;;;;5072444;28;21015;-82
2022/07/15 02:37:02;;;;;;;1.00;0.53;;;17.50;86.90;;;;;;5072284;28;20475;-82
2022/07/15 02:39:29;;;;;;;0.60;0.50;;;17.40;86.80;;;;;;5072532;28;20437;-82
2022/07/15 02:41:56;;;;;;;1.63;0.50;;;17.40;87.00;;;;;;5072802;28;20440;-82
2022/07/15 02:44:23;;;;;;;0.63;0.60;;;17.40;87.20;;;;;;5072799;28;20452;-82
2022/07/15 02:46:51;;;;;;;0.77;0.60;;;17.30;86.10;;;;;;5072683;28;20453;-82
2022/07/15 02:49:17;;;;;;;6.13;1.53;;;17.30;86.50;;;;;;5072628;28;20476;-82
2022/07/15 02:51:44;;;;;;;0.50;0.40;;;17.30;87.00;;;;;;5072376;28;20452;-82
2022/07/15 02:54:11;;;;;;;0.50;0.50;;;17.20;87.20;;;;;;5075212;28;20449;-82
2022/07/15 02:56:37;;;;;;;0.43;0.43;;;17.20;87.90;;;;;;5076286;28;20484;-82
2022/07/15 02:59:04;;;;;;;0.67;0.60;;;17.20;87.90;;;;;;5075918;28;20972;-82
2022/07/15 03:01:31;;;;;;;0.80;0.50;;;17.10;87.70;;;;;;5075923;28;20448;-82
2022/07/15 03:04:00;;;;;;;0.50;0.50;;;17.10;88.00;;;;;;5076244;28;20457;-82
2022/07/15 03:06:27;;;;;;;0.50;0.50;;;17.10;88.40;;;;;;5076327;28;20436;-82
2022/07/15 03:08:53;;;;;;;1.30;1.20;;;17.10;88.80;;;;;;5075796;28;20955;-81
2022/07/15 03:11:20;;;;;;;1.17;0.70;;;17.00;88.30;;;;;;5076068;28;20444;-82
2022/07/15 03:13:47;;;;;;;0.97;0.60;;;17.00;88.50;;;;;;5076227;28;20522;-82
2022/07/15 03:16:14;;;;;;;0.60;0.60;;;17.00;88.70;;;;;;5075898;28;20476;-82
2022/07/15 03:18:40;;;;;;;0.90;0.70;;;17.00;88.40;;;;;;5075848;28;20468;-81
2022/07/15 03:21:09;;;;;;;0.50;0.50;;;16.90;88.70;;;;;;5075914;28;20451;-82
2022/07/15 03:23:36;;;;;;;0.93;0.67;;;16.90;88.70;;;;;;5075539;28;21031;-81
2022/07/15 03:26:03;;;;;;;0.70;0.70;;;16.90;89.40;;;;;;5075537;28;20952;-82
2022/07/15 03:28:30;;;;;;;0.50;0.50;;;16.90;89.60;;;;;;5075721;28;20465;-82
2022/07/15 03:30:56;;;;;;;0.67;0.67;;;16.80;88.80;;;;;;5075814;28;20457;-82
2022/07/15 03:33:23;;;;;;;1.20;0.70;;;16.80;87.90;;;;;;5075768;28;20452;-82
2022/07/15 03:35:50;;;;;;;0.70;0.70;;;16.70;88.60;;;;;;5075630;28;20488;-82
2022/07/15 03:38:18;;;;;;;0.63;0.63;;;16.70;90.00;;;;;;5075153;28;20484;-82
2022/07/15 03:40:44;;;;;;;0.90;0.50;;;16.70;90.30;;;;;;5075651;28;20460;-82
2022/07/15 03:43:12;;;;;;;1.03;0.90;;;16.60;90.10;;;;;;5075171;28;20822;-82
2022/07/15 03:45:38;;;;;;;0.80;0.80;;;16.60;90.20;;;;;;5075372;28;20484;-82
2022/07/15 03:48:06;;;;;;;0.80;0.40;;;16.60;90.00;;;;;;5075436;28;20464;-82
2022/07/15 03:50:32;;;;;;;0.50;0.50;;;16.60;89.80;;;;;;5075432;28;20440;-82
2022/07/15 03:52:59;;;;;;;0.97;0.97;;;16.60;90.30;;;;;;5075298;28;20448;-82
2022/07/15 03:55:27;;;;;;;1.57;0.60;;;16.60;90.50;;;;;;5075002;28;20863;-82
2022/07/15 03:57:55;;;;;;;0.60;0.50;;;16.50;90.50;;;;;;5074835;28;21026;-82
2022/07/15 04:00:21;;;;;;;1.00;0.90;;;16.60;90.70;;;;;;5075175;28;20456;-82
2022/07/15 04:02:48;;;;;;;1.27;0.73;;;16.60;91.10;;;;;;5075169;28;20456;-82
2022/07/15 04:05:15;;;;;;;0.70;0.57;;;16.60;91.10;;;;;;5074461;28;20481;-82
2022/07/15 04:07:42;;;;;;;0.80;0.80;;;16.60;90.50;;;;;;5075013;28;20477;-82
2022/07/15 04:10:09;;;;;;;0.67;0.67;;;16.60;90.70;;;;;;5075011;28;20810;-82
2022/07/15 04:12:37;;;;;;;0.80;0.50;;;16.60;91.00;;;;;;5074983;28;20448;-82
2022/07/15 04:15:05;;;;;;;0.60;0.60;;;16.60;91.10;;;;;;5074908;28;20444;-82
2022/07/15 04:17:31;;;;;;;0.50;0.50;;;16.60;91.00;;;;;;5074753;28;20475;-82
2022/07/15 04:19:58;;;;;;;0.70;0.63;;;16.60;91.20;;;;;;5074815;28;20459;-82
2022/07/15 04:22:25;;;;;;;0.60;0.60;;;16.60;91.30;;;;;;5074803;28;20795;-81
2022/07/15 04:24:52;;;;;;;1.23;0.80;;;16.60;91.70;;;;;;5074389;28;20956;-82
2022/07/15 04:27:18;;;;;;;0.50;0.50;;;16.60;91.50;;;;;;5074648;28;20464;-82
2022/07/15 04:29:47;;;;;;;0.90;0.60;;;16.60;91.60;;;;;;5074667;28;20456;-82
2022/07/15 04:32:13;;;;;;;0.60;0.60;;;16.60;92.00;;;;;;5074581;28;20453;-82
2022/07/15 04:34:40;;;;;;;0.60;0.50;;;16.60;92.00;;;;;;5074499;28;20445;-82
2022/07/15 04:37:07;;;;;;;0.50;0.50;;;16.60;92.40;;;;;;5074132;28;20480;-81
2022/07/15 04:39:33;;;;;;;0.60;0.60;;;16.60;92.40;;;;;;5074558;28;20449;-82
2022/07/15 04:42:00;;;;;;;1.50;0.73;;;16.60;92.10;;;;;;5074378;28;20444;-82
2022/07/15 04:44:27;;;;;;;1.07;0.73;;;16.70;92.30;;;;;;5074004;28;21123;-81
2022/07/15 04:46:55;;;;;;;0.67;0.67;;;16.70;91.80;;;;;;5073906;28;20481;-82
2022/07/15 04:52:06;;;;;;;0.60;0.53;;;16.70;92.00;;;;;;5073961;28;20459;-82
2022/07/15 04:54:33;;;;;;;0.60;0.60;;;16.60;92.10;;;;;;5074117;28;20449;-82
2022/07/15 04:56:59;;;;;;;0.63;0.63;;;16.60;92.40;;;;;;5073656;28;20785;-82
2022/07/15 04:59:26;;;;;;;1.37;0.90;;;16.60;92.20;;;;;;5073962;28;20445;-82
2022/07/15 05:01:54;;;;;;;0.70;0.60;;;16.70;92.40;;;;;;5073980;28;20437;-82
2022/07/15 05:04:22;;;;;;;0.60;0.50;;;16.70;93.00;;;;;;5073641;28;20961;-82
2022/07/15 05:06:48;;;;;;;0.90;0.90;;;16.80;92.80;;;;;;5073857;28;20507;-82
2022/07/15 05:09:15;;;;;;;0.47;0.47;;;16.80;92.80;;;;;;5073432;28;20465;-82
2022/07/15 05:11:42;;;;;;;1.43;0.70;;;16.90;93.00;;;;;;5073875;28;20437;-82
2022/07/15 05:14:10;;;;;;;0.60;0.60;;;16.90;92.90;;;;;;5073465;28;20948;-82
2022/07/15 05:16:36;;;;;;;0.60;0.60;;;17.00;92.70;;;;;;5072627;28;20445;-82
2022/07/15 05:19:04;;;;;;;0.50;0.50;;;17.10;92.60;;;;;;5073643;28;20492;-82
2022/07/15 05:21:31;;;;;;;1.83;0.67;;;17.10;92.90;;;;;;5073338;28;20962;-82
2022/07/15 05:23:58;;;;;;;0.80;0.80;;;17.20;92.70;;;;;;5073723;28;20527;-82
2022/07/15 05:26:25;;;;;;;0.60;0.60;;;17.20;92.50;;;;;;5073588;28;20499;-81
2022/07/15 05:28:51;;;;;;;0.60;0.60;;;17.30;92.80;;;;;;5073260;28;20840;-82
2022/07/15 05:31:18;;;;;;;0.73;0.73;;;17.40;92.70;;;;;;5073535;28;20441;-82
2022/07/15 05:33:45;;;;;;;1.90;1.43;;;17.40;92.50;;;;;;5073525;28;20452;-82
2022/07/15 05:36:14;;;;;;;0.60;0.60;;;17.50;92.50;;;;;;5073465;28;20441;-82
2022/07/15 05:38:41;;;;;;;0.70;0.63;;;17.50;92.80;;;;;;5072917;28;20503;-82
2022/07/15 05:41:08;;;;;;;1.53;0.60;;;17.60;92.40;;;;;;5073192;28;20460;-82
2022/07/15 05:43:35;;;;;;;0.70;0.70;;;17.70;92.40;;;;;;5073367;28;20548;-82
2022/07/15 05:46:02;;;;;;;0.67;0.60;;;17.80;92.40;;;;;;5073245;28;20495;-82
2022/07/15 05:48:29;;;;;;;0.70;0.70;;;17.80;92.50;;;;;;5073241;28;20477;-82
2022/07/15 05:50:56;;;;;;;0.80;0.70;;;17.90;91.90;;;;;;5072988;28;20974;-82
2022/07/15 05:53:24;;;;;;;1.27;0.70;;;18.00;91.60;;;;;;5073274;28;20456;-82
2022/07/15 05:55:52;;;;;;;0.60;0.60;;;18.10;91.00;;;;;;5072933;28;20456;-82
2022/07/15 05:58:19;;;;;;;2.00;1.00;;;18.30;90.60;;;;;;5073188;28;20464;-82
2022/07/15 06:00:45;;;;;;;0.50;0.50;;;18.50;90.50;;;;;;5072816;28;20814;-82
2022/07/15 06:03:12;;;;;;;0.80;0.57;;;18.70;89.60;;;;;;5073220;28;20456;-82
2022/07/15 06:05:39;;;;;;;1.90;0.90;;;18.80;89.70;;;;;;5073076;28;20456;-82
2022/07/15 06:08:07;;;;;;;0.70;0.50;;;18.90;89.00;;;;;;5073045;28;20461;-82
2022/07/15 06:10:35;;;;;;;4.10;0.80;;;19.10;87.00;;;;;;5072819;28;20453;-82
2022/07/15 06:13:02;;;;;;;1.40;0.70;;;19.20;86.50;;;;;;5073101;28;20452;-81
2022/07/15 06:15:29;;;;;;;3.23;0.60;;;19.30;84.90;;;;;;5073074;28;20460;-82
2022/07/15 06:17:56;;;;;;;0.73;0.50;;;19.40;86.20;;;;;;5072970;28;20465;-82
2022/07/15 06:20:23;;;;;;;1.80;0.60;;;19.60;84.30;;;;;;5072741;28;20487;-82
2022/07/15 06:22:50;;;;;;;2.03;0.83;;;19.80;84.20;;;;;;5073066;28;20449;-82
2022/07/15 06:25:17;;;;;;;1.17;0.80;;;20.00;82.90;;;;;;5072661;28;20445;-81
2022/07/15 06:27:45;;;;;;;0.80;0.73;;;20.10;82.80;;;;;;5073169;28;20491;-82
2022/07/15 06:30:12;;;;;;;1.20;0.80;;;20.30;82.60;;;;;;5076625;28;20455;-79
2022/07/15 06:32:39;;;;;;;1.23;1.20;;;20.60;82.80;;;;;;5076879;28;20448;-81
2022/07/15 06:35:07;;;;;;;1.40;0.77;;;20.80;81.70;;;;;;5076528;28;20568;-81
2022/07/15 06:37:34;;;;;;;0.57;0.57;;;20.90;80.50;;;;;;5076242;28;20502;-81
2022/07/15 06:40:02;;;;;;;0.60;0.60;;;21.10;78.70;;;;;;5076792;28;20448;-81
2022/07/15 06:42:29;;;;;;;0.60;0.50;;;21.30;78.20;;;;;;5076358;28;20900;-81
2022/07/15 06:44:57;;;;;;;1.97;0.77;;;21.40;77.40;;;;;;5076368;28;20943;-81
2022/07/15 06:47:24;;;;;;;0.90;0.40;;;21.60;69.20;;;;;;5076195;28;20495;-81
2022/07/15 06:49:51;;;;;;;0.77;0.60;;;21.80;66.20;;;;;;5076498;28;20460;-81
2022/07/15 06:52:18;;;;;;;0.60;0.50;;;22.00;66.60;;;;;;5076510;28;20444;-81
2022/07/15 06:54:44;;;;;;;0.93;0.40;;;22.10;67.50;;;;;;5076439;28;20440;-81
2022/07/15 06:57:12;;;;;;;0.50;0.50;;;22.20;69.40;;;;;;5076875;28;20444;-81
2022/07/15 06:59:39;;;;;;;0.60;0.50;;;22.40;65.50;;;;;;5076383;28;20543;-81
2022/07/15 07:02:07;;;;;;;0.60;0.60;;;22.50;65.80;;;;;;5076358;28;20202;-81
2022/07/15 07:04:34;;;;;;;0.50;0.40;;;22.40;64.50;;;;;;5076287;28;20447;-81
2022/07/15 07:07:01;;;;;;;0.80;0.40;;;22.50;65.40;;;;;;5075731;28;20850;-82
2022/07/15 07:09:28;;;;;;;0.60;0.60;;;22.50;63.40;;;;;;5075865;28;20202;-81
2022/07/15 07:11:54;;;;;;;0.67;0.60;;;22.50;64.00;;;;;;5076174;28;20444;-81
2022/07/15 07:14:21;;;;;;;0.70;0.50;;;22.50;64.00;;;;;;5076148;28;20455;-81
2022/07/15 07:16:48;;;;;;;0.70;0.70;;;22.60;64.50;;;;;;5075852;28;20528;-81
2022/07/15 07:19:16;;;;;;;0.83;0.50;;;22.70;66.30;;;;;;5075603;28;20472;-81
2022/07/15 07:21:43;;;;;;;0.60;0.40;;;22.80;65.00;;;;;;5075777;28;20206;-81
2022/07/15 07:24:10;;;;;;;0.50;0.50;;;23.10;64.60;;;;;;5075747;28;20801;-81
2022/07/15 07:26:37;;;;;;;0.70;0.50;;;23.10;63.80;;;;;;5075789;28;20226;-81
2022/07/15 07:29:04;;;;;;;0.70;0.50;;;23.20;64.10;;;;;;5075748;28;20464;-81
2022/07/15 07:31:31;;;;;;;0.70;0.50;;;23.30;64.30;;;;;;5075796;28;20209;-81
2022/07/15 07:33:59;;;;;;;0.50;0.40;;;23.30;63.80;;;;;;5075741;28;20202;-81
2022/07/15 07:36:27;;;;;;;0.60;0.60;;;23.50;65.00;;;;;;5075740;28;20194;-80
2022/07/15 07:38:55;;;;;;;0.50;0.50;;;23.50;63.90;;;;;;5075029;28;20735;-81
2022/07/15 07:41:22;;;;;;;0.90;0.70;;;23.50;63.30;;;;;;5074506;28;20677;-83
2022/07/15 07:43:48;;;;;;;0.70;0.53;;;23.70;61.80;;;;;;5075265;28;20213;-81
2022/07/15 07:46:16;;;;;;;0.80;0.50;;;23.90;61.80;;;;;;5075151;28;20709;-81
2022/07/15 07:48:43;;;;;;;0.88;0.80;;;24.00;61.60;;;;;;5075288;28;20218;-81
2022/07/15 07:51:10;;;;;;;0.85;0.57;;;24.10;61.80;;;;;;5075404;28;20202;-82
2022/07/15 07:53:38;;;;;;;0.60;0.60;;;24.30;62.20;;;;;;5075355;28;20198;-81
2022/07/15 07:56:06;;;;;;;3.15;0.70;;;24.60;61.20;;;;;;5075390;28;20193;-82
2022/07/15 07:58:32;;;;;;;0.80;0.68;;;24.90;59.60;;;;;;5075179;28;20225;-82
2022/07/15 08:00:59;;;;;;;0.50;0.50;;;25.10;59.60;;;;;;5074924;28;20638;-82
2022/07/15 08:03:27;;;;;;;0.82;0.60;;;25.20;60.40;;;;;;5074979;28;20193;-82
2022/07/15 08:05:53;;;;;;;1.00;0.50;;;25.40;58.20;;;;;;5075131;28;20234;-82
2022/07/15 08:08:22;;;;;;;0.80;0.70;;;25.40;58.90;;;;;;5074667;28;20705;-82
2022/07/15 08:10:53;;;;;;;0.47;0.47;;;25.50;58.00;;;;;;5075095;28;20198;-82
2022/07/15 08:13:21;;;;;;;0.60;0.50;;;25.60;59.00;;;;;;5074762;28;20190;-82
2022/07/15 08:15:48;;;;;;;0.52;0.50;;;25.50;58.40;;;;;;5074977;28;20279;-82
2022/07/15 08:18:15;;;;;;;0.70;0.70;;;25.60;58.30;;;;;;5074858;28;20218;-80
2022/07/15 08:20:42;;;;;;;0.60;0.60;;;25.60;58.10;;;;;;5074853;28;20677;-82
2022/07/15 08:23:10;;;;;;;1.20;0.52;;;25.70;57.80;;;;;;5074886;28;20290;-82
2022/07/15 08:25:39;;;;;;;0.98;0.50;;;25.70;57.60;;;;;;5074448;28;20696;-82
2022/07/15 08:28:08;;;;;;;0.68;0.55;;;25.60;57.80;;;;;;5074509;28;20233;-82
2022/07/15 08:30:35;;;;;;;0.60;0.60;;;25.60;57.40;;;;;;5074344;28;20681;-82
2022/07/15 08:33:02;;;;;;;0.60;0.60;;;25.80;58.20;;;;;;5074533;28;20301;-82
2022/07/15 08:35:30;;;;;;;0.60;0.60;;;25.70;57.10;;;;;;5074552;28;20228;-82
2022/07/15 08:37:57;;;;;;;0.95;0.95;;;25.80;57.40;;;;;;5074029;28;20230;-82
2022/07/15 08:40:25;;;;;;;0.47;0.47;;;25.80;58.20;;;;;;5074406;28;20209;-82
2022/07/15 08:42:51;;;;;;;1.10;0.70;;;25.90;57.90;;;;;;5074062;28;20259;-82
2022/07/15 08:45:20;;;;;;;0.77;0.50;;;26.00;57.50;;;;;;5074326;28;20198;-82
2022/07/15 08:47:47;;;;;;;0.50;0.40;;;26.00;55.90;;;;;;5073916;28;20225;-82
2022/07/15 08:50:16;;;;;;;0.75;0.60;;;26.00;56.10;;;;;;5074288;28;20202;-84
2022/07/15 08:52:44;;;;;;;0.77;0.73;;;26.10;56.80;;;;;;5074047;28;20296;-83
2022/07/15 08:55:12;;;;;;;0.80;0.47;;;26.10;57.20;;;;;;5074117;28;20206;-84
2022/07/15 08:57:39;;;;;;;0.80;0.52;;;26.30;54.90;;;;;;5073684;28;20710;-84
2022/07/15 09:00:11;;;;;;;0.50;0.50;;;26.30;56.10;;;;;;5073764;28;20206;-83
2022/07/15 09:02:39;;;;;;;0.60;0.60;;;26.30;55.70;;;;;;5073777;28;20549;-83
2022/07/15 09:05:26;;;;;;;1.95;0.63;;;26.40;55.60;;;;;;5074026;28;20202;-84
2022/07/15 09:07:58;;;;;;;0.77;0.77;;;26.50;55.20;;;;;;5073831;28;20262;-83
2022/07/15 09:10:42;;;;;;;1.88;0.88;;;26.80;54.10;;;;;;5074021;28;20221;-83
2022/07/15 09:13:10;;;;;;;0.50;0.50;;;27.00;54.80;;;;;;5073843;28;20288;-83
2022/07/15 09:15:38;;;;;;;0.68;0.68;;;26.90;54.10;;;;;;5073516;28;20699;-83
2022/07/15 09:18:12;;;;;;;0.88;0.70;;;26.90;53.40;;;;;;5073742;28;20214;-83
2022/07/15 09:20:39;;;;;;;0.70;0.60;;;26.80;54.50;;;;;;5073496;28;20657;-83
2022/07/15 09:23:06;;;;;;;0.60;0.55;;;26.70;53.70;;;;;;5073717;28;20198;-83
2022/07/15 09:25:35;;;;;;;0.50;0.50;;;26.60;54.70;;;;;;5073869;28;20198;-83
2022/07/15 09:28:04;;;;;;;0.70;0.70;;;26.50;53.80;;;;;;5073489;28;20340;-83
2022/07/15 09:33:36;;;;;;;0.70;0.70;;;26.20;55.40;;;;;;5073322;28;20264;-83
2022/07/15 09:36:20;;;;;;;2.30;1.42;;;26.10;56.00;;;;;;5073576;28;20201;-83
2022/07/15 09:38:48;;;;;;;0.60;0.60;;;26.10;56.20;;;;;;5071621;28;20226;-83
2022/07/15 09:41:26;;;;;;;0.75;0.70;;;26.20;56.50;;;;;;5073514;28;20580;-82
2022/07/15 09:43:55;;;;;;;0.80;0.80;;;26.40;58.60;;;;;;5073955;28;20194;-82
2022/07/15 09:46:23;;;;;;;0.80;0.63;;;26.50;57.60;;;;;;5073056;28;20206;-83
2022/07/15 09:48:53;;;;;;;0.70;0.70;;;26.60;55.50;;;;;;5073202;28;20257;-84
2022/07/15 09:51:20;;;;;;;0.90;0.82;;;26.80;55.60;;;;;;5074148;28;20202;-83
2022/07/15 09:53:47;;;;;;;0.70;0.70;;;26.90;55.20;;;;;;5073012;28;20692;-83
2022/07/15 09:56:16;;;;;;;0.80;0.80;;;27.00;55.50;;;;;;5073323;28;20202;-83
2022/07/15 09:58:44;;;;;;;0.85;0.82;;;26.70;54.90;;;;;;5073269;28;20584;-83
2022/07/15 10:01:12;;;;;;;0.82;0.82;;;26.40;56.10;;;;;;5073283;28;20198;-83
2022/07/15 10:03:39;;;;;;;1.35;0.80;;;26.30;56.10;;;;;;5072657;28;20209;-83
2022/07/15 10:06:08;;;;;;;0.65;0.65;;;26.10;56.70;;;;;;5073178;28;20197;-84
2022/07/15 10:08:35;;;;;;;0.77;0.63;;;26.20;57.20;;;;;;5073154;28;20233;-84
2022/07/15 10:11:09;;;;;;;0.70;0.70;;;26.60;56.20;;;;;;5073214;28;20331;-83
2022/07/15 10:13:57;;;;;;;0.70;0.70;;;26.70;57.40;;;;;;5073164;28;20626;-83
2022/07/15 10:16:50;;;;;;;0.98;0.60;;;26.80;57.00;;;;;;5072918;28;20189;-83
2022/07/15 10:19:25;;;;;;;0.80;0.80;;;27.00;57.60;;;;;;5073065;28;20217;-83
2022/07/15 10:22:05;;;;;;;0.75;0.70;;;27.00;56.70;;;;;;5072789;28;20186;-84
2022/07/15 10:24:53;;;;;;;0.95;0.63;;;27.10;55.00;;;;;;5072777;28;20194;-83
2022/07/15 10:27:36;;;;;;;0.73;0.73;;;26.90;56.00;;;;;;5073197;28;20597;-80
2022/07/15 10:30:05;;;;;;;0.65;0.65;;;27.00;56.20;;;;;;5072999;28;20209;-84
2022/07/15 10:33:07;;;;;;;0.82;0.65;;;27.00;56.30;;;;;;5072940;28;20201;-84
2022/07/15 10:35:35;;;;;;;1.02;0.82;;;27.10;56.40;;;;;;5072955;28;20202;-83
2022/07/15 10:38:23;;;;;;;0.93;0.70;;;27.20;56.10;;;;;;5072403;28;20276;-83
2022/07/15 10:41:07;;;;;;;0.95;0.80;;;27.40;55.00;;;;;;5072553;28;20674;-83
2022/07/15 10:43:42;;;;;;;0.90;0.90;;;27.40;55.50;;;;;;5072776;28;20193;-83
2022/07/15 10:46:20;;;;;;;1.17;1.02;;;27.10;56.50;;;;;;5072505;28;20681;-83
2022/07/15 10:48:49;;;;;;;0.70;0.65;;;27.00;55.80;;;;;;5072681;28;20229;-83
2022/07/15 10:51:49;;;;;;;0.80;0.80;;;26.80;55.40;;;;;;5072733;28;20202;-84
2022/07/15 10:54:46;;;;;;;1.08;0.68;;;26.50;55.50;;;;;;5072449;28;20282;-83
2022/07/15 10:57:15;;;;;;;0.73;0.70;;;26.40;56.00;;;;;;5072657;28;20182;-83
2022/07/15 10:59:50;;;;;;;1.38;1.27;;;26.50;56.60;;;;;;5072698;28;20208;-83
2022/07/15 11:02:20;;;;;;;1.00;0.90;;;26.60;57.10;;;;;;5072663;28;20190;-83
2022/07/15 11:04:47;;;;;;;0.70;0.70;;;26.80;55.30;;;;;;5072669;28;20206;-83
2022/07/15 11:07:30;;;;;;;0.73;0.70;;;27.20;55.80;;;;;;5072430;28;20198;-83
2022/07/15 11:10:15;;;;;;;2.15;0.70;;;27.90;54.40;;;;;;5072382;28;20198;-83
2022/07/15 11:13:02;;;;;;;1.42;1.33;;;29.00;52.20;;;;;;5072621;28;20187;-83
2022/07/15 11:15:29;;;;;;;0.88;0.88;;;29.40;52.10;;;;;;5074072;28;20186;-83
2022/07/15 11:17:57;;;;;;;1.27;1.17;;;29.40;52.10;;;;;;5076058;28;20229;-83
2022/07/15 11:20:31;;;;;;;1.10;0.82;;;29.30;52.10;;;;;;5075982;28;20205;-84
2022/07/15 11:22:59;;;;;;;1.20;0.80;;;28.90;52.20;;;;;;5076072;28;20245;-83
2022/07/15 11:25:29;;;;;;;0.80;0.57;;;28.60;52.80;;;;;;5075885;28;20699;-83
2022/07/15 11:28:00;;;;;;;1.30;0.90;;;28.10;53.90;;;;;;5075792;28;20230;-83
2022/07/15 11:30:27;;;;;;;0.70;0.70;;;27.90;53.60;;;;;;5075874;28;20225;-83
2022/07/15 11:32:59;;;;;;;0.55;0.55;;;27.70;55.10;;;;;;5075587;28;20186;-83
2022/07/15 11:35:27;;;;;;;0.98;0.82;;;27.60;56.00;;;;;;5075808;28;20189;-83
2022/07/15 11:38:00;;;;;;;1.27;0.90;;;27.60;55.50;;;;;;5075103;28;20728;-83
2022/07/15 11:46:00;;;;;;;0.60;0.60;;;27.60;54.30;;;;;;5075660;28;20262;-83
2022/07/15 11:48:27;;;;;;;3.50;1.30;;;27.60;53.70;;;;;;5075371;28;20226;-83
2022/07/15 11:50:56;;;;;;;1.10;1.00;;;27.60;53.10;;;;;;5075522;28;20206;-83
2022/07/15 11:53:24;;;;;;;1.30;0.90;;;27.30;53.80;;;;;;5075418;28;20205;-83
2022/07/15 11:55:54;;;;;;;0.70;0.70;;;27.00;54.40;;;;;;5075179;28;20206;-83
2022/07/15 11:58:31;;;;;;;2.13;0.88;;;26.80;54.10;;;;;;5075395;28;20222;-83
2022/07/15 12:00:59;;;;;;;2.38;0.88;;;26.70;54.70;;;;;;5075334;28;20284;-82
2022/07/15 12:03:31;;;;;;;0.70;0.70;;;26.80;55.80;;;;;;5075343;28;20571;-83
2022/07/15 12:06:03;;;;;;;1.45;0.70;;;26.90;54.20;;;;;;5075103;28;20179;-83
2022/07/15 12:08:38;;;;;;;0.80;0.80;;;27.00;54.20;;;;;;5075045;28;20252;-83
2022/07/15 12:11:14;;;;;;;0.80;0.80;;;27.00;54.30;;;;;;5074809;28;20201;-83
2022/07/15 12:13:46;;;;;;;2.75;1.60;;;26.70;54.90;;;;;;5075182;28;20193;-83
2022/07/15 12:16:13;;;;;;;1.15;0.88;;;26.60;56.10;;;;;;5074773;28;20323;-83
2022/07/15 12:18:41;;;;;;;1.95;1.15;;;26.50;56.10;;;;;;5074966;28;20222;-83
2022/07/15 12:21:08;;;;;;;1.13;1.13;;;26.50;55.90;;;;;;5074857;28;20209;-83
2022/07/15 12:23:35;;;;;;;1.15;0.70;;;26.60;55.70;;;;;;5074838;28;20198;-83
2022/07/15 12:26:03;;;;;;;1.25;1.00;;;26.70;57.00;;;;;;5074335;28;20209;-83
2022/07/15 12:28:32;;;;;;;1.00;0.80;;;26.60;58.10;;;;;;5074500;28;20233;-84
2022/07/15 12:31:00;;;;;;;1.23;0.70;;;26.60;57.90;;;;;;5074225;28;20673;-83
2022/07/15 12:33:27;;;;;;;0.90;0.90;;;26.70;55.70;;;;;;5074258;28;20576;-84
2022/07/15 12:36:15;;;;;;;1.92;0.70;;;26.70;55.70;;;;;;5074524;28;20210;-83
2022/07/15 12:38:43;;;;;;;1.27;0.75;;;26.80;55.60;;;;;;5074132;28;20260;-83
2022/07/15 12:41:23;;;;;;;0.90;0.80;;;26.90;56.60;;;;;;5074297;28;20194;-83
2022/07/15 12:43:53;;;;;;;0.60;0.60;;;27.00;55.30;;;;;;5074105;28;20186;-83
2022/07/15 12:46:20;;;;;;;0.77;0.77;;;26.80;56.60;;;;;;5074435;28;20187;-83
2022/07/15 12:48:48;;;;;;;0.70;0.70;;;26.70;55.80;;;;;;5074281;28;20241;-83
2022/07/15 12:51:16;;;;;;;0.88;0.88;;;26.60;57.00;;;;;;5074094;28;20198;-83
2022/07/15 12:53:43;;;;;;;1.02;0.70;;;26.40;57.00;;;;;;5074227;28;20204;-83
2022/07/15 12:56:11;;;;;;;0.80;0.80;;;26.30;57.20;;;;;;5074283;28;20575;-83
2022/07/15 12:58:38;;;;;;;0.90;0.85;;;26.20;57.20;;;;;;5074088;28;20260;-83
2022/07/15 13:01:11;;;;;;;1.58;1.33;;;26.20;57.80;;;;;;5073897;28;20646;-83
2022/07/15 13:03:38;;;;;;;0.90;0.80;;;26.20;58.30;;;;;;5074157;28;20200;-83
2022/07/15 13:06:06;;;;;;;0.80;0.80;;;26.40;56.70;;;;;;5074038;28;20209;-84
2022/07/15 13:08:34;;;;;;;0.90;0.90;;;26.20;57.10;;;;;;5073892;28;20253;-83
2022/07/15 13:11:03;;;;;;;1.67;1.17;;;26.10;57.50;;;;;;5073715;28;20665;-81